Time;durP1;ratioP1;P1;durP2;ratioP2;P2;SDS_P1;SDS_P2;PMS_P1;PMS_P2;Temp;Humidity;BMP_temperature;BMP_pressure;BME280_temperature;BME280_humidity;BME280_pressure;Samples;Min_cycle;Max_cycle;Signal;HPM_P1;HPM_P2
2024/02/11 00:01:03;;;;;;;21.25;7.47;;;10.50;99.90;;;;;;5028255;28;20043;-69
2024/02/11 00:03:29;;;;;;;16.35;5.97;;;10.40;99.90;;;;;;5028226;28;20030;-69
2024/02/11 00:05:55;;;;;;;;;;;10.30;99.90;;;;;;5010973;28;20152;-70
2024/02/11 00:08:22;;;;;;;21.90;6.22;;;10.30;99.90;;;;;;5028078;28;19913;-69
2024/02/11 00:10:49;;;;;;;19.63;5.68;;;10.20;99.90;;;;;;5028126;28;20803;-68
2024/02/11 00:13:15;;;;;;;25.98;6.95;;;10.30;99.90;;;;;;5028070;28;20026;-69
2024/02/11 00:15:41;;;;;;;;;;;10.30;99.90;;;;;;5028539;28;20025;-68
2024/02/11 00:18:06;;;;;;;17.52;6.40;;;10.30;99.90;;;;;;5010167;28;19909;-70
2024/02/11 00:20:32;;;;;;;;;;;10.20;99.90;;;;;;5028410;28;20043;-69
2024/02/11 00:22:58;;;;;;;22.67;6.40;;;10.20;99.90;;;;;;5032888;28;20301;-69
2024/02/11 00:25:24;;;;;;;;;;;10.20;99.90;;;;;;5047215;28;20425;-70
2024/02/11 00:27:52;;;;;;;19.27;5.80;;;10.10;99.90;;;;;;5051417;28;19909;-70
2024/02/11 00:30:22;;;;;;;21.67;6.32;;;10.10;99.90;;;;;;5051577;28;20029;-69
2024/02/11 00:32:48;;;;;;;25.58;6.25;;;10.10;99.90;;;;;;5051369;28;20039;-69
2024/02/11 00:35:18;;;;;;;;;;;10.20;99.90;;;;;;5051625;28;20024;-69
2024/02/11 00:37:44;;;;;;;15.95;6.85;;;10.10;99.90;;;;;;5051347;28;20349;-69
2024/02/11 00:40:10;;;;;;;15.77;6.50;;;10.10;99.90;;;;;;5051398;28;20029;-69
2024/02/11 00:42:36;;;;;;;12.55;6.55;;;10.10;99.90;;;;;;5051643;28;20052;-69
2024/02/11 00:45:03;;;;;;;;;;;10.10;99.90;;;;;;5051943;28;20106;-70
2024/02/11 00:47:29;;;;;;;16.92;6.35;;;10.10;99.90;;;;;;5051248;28;19905;-68
2024/02/11 00:49:55;;;;;;;;;;;10.10;99.90;;;;;;5050121;28;20350;-70
2024/02/11 00:52:21;;;;;;;22.15;6.65;;;10.10;99.90;;;;;;5051158;28;19923;-69
2024/02/11 00:54:47;;;;;;;21.48;6.00;;;10.00;99.90;;;;;;5049784;28;20174;-67
2024/02/11 00:57:12;;;;;;;;;;;9.90;99.90;;;;;;5050103;28;20056;-69
2024/02/11 00:59:41;;;;;;;21.65;7.75;;;9.80;99.90;;;;;;5051131;28;19905;-69
2024/02/11 01:02:07;;;;;;;23.60;6.72;;;9.80;99.90;;;;;;5050874;28;20035;-69
2024/02/11 01:04:32;;;;;;;;;;;9.80;99.90;;;;;;5051459;28;20033;-70
2024/02/11 01:06:58;;;;;;;28.27;8.35;;;9.80;99.90;;;;;;5050886;28;19909;-67
2024/02/11 01:09:27;;;;;;;;;;;9.80;99.90;;;;;;5049898;28;20497;-69
2024/02/11 01:11:52;;;;;;;28.83;7.45;;;9.80;99.90;;;;;;5053741;28;19904;-70
2024/02/11 01:14:18;;;;;;;;;;;9.80;99.90;;;;;;5055950;28;20043;-70
2024/02/11 01:16:44;;;;;;;28.52;7.85;;;9.70;99.90;;;;;;5050768;28;19909;-68
2024/02/11 01:19:11;;;;;;;;;;;9.60;99.90;;;;;;5050342;28;20375;-69
2024/02/11 01:21:37;;;;;;;29.65;7.35;;;9.60;99.90;;;;;;5050610;28;20011;-69
2024/02/11 01:24:02;;;;;;;;;;;9.70;99.90;;;;;;5050833;28;20710;-69
2024/02/11 01:26:28;;;;;;;21.17;7.10;;;9.70;99.90;;;;;;5050449;28;19912;-69
2024/02/11 01:28:54;;;;;;;;;;;9.60;99.90;;;;;;5050893;28;20037;-69
2024/02/11 01:31:19;;;;;;;21.70;6.50;;;9.60;99.90;;;;;;5050376;28;20281;-69
2024/02/11 01:33:45;;;;;;;;;;;9.60;99.90;;;;;;5049341;28;20025;-69
2024/02/11 01:36:12;;;;;;;17.05;6.72;;;9.50;99.90;;;;;;5050282;28;19951;-68
2024/02/11 01:38:38;;;;;;;26.10;7.25;;;9.40;99.90;;;;;;5047788;28;20024;-68
2024/02/11 01:41:04;;;;;;;18.92;7.50;;;9.50;99.90;;;;;;5050208;28;20059;-68
2024/02/11 01:43:29;;;;;;;;;;;9.40;99.90;;;;;;5050619;28;20426;-69
2024/02/11 01:45:57;;;;;;;19.90;6.20;;;9.40;99.90;;;;;;5050033;28;19908;-70
2024/02/11 01:48:23;;;;;;;20.88;7.15;;;9.40;99.90;;;;;;5049762;28;20489;-69
2024/02/11 01:50:52;;;;;;;22.17;6.93;;;9.40;99.90;;;;;;5050256;28;20059;-70
2024/02/11 01:53:20;;;;;;;19.85;6.55;;;9.40;99.90;;;;;;5048968;28;20051;-69
2024/02/11 01:55:46;;;;;;;15.90;5.70;;;9.50;99.90;;;;;;5049886;28;20492;-70
2024/02/11 01:58:14;;;;;;;15.27;5.35;;;9.40;99.90;;;;;;5048647;28;20033;-69
2024/02/11 02:00:41;;;;;;;12.07;5.07;;;9.70;99.90;;;;;;5049649;28;20025;-69
2024/02/11 02:03:09;;;;;;;16.25;6.60;;;9.70;99.90;;;;;;5048829;28;20063;-70
2024/02/11 02:05:36;;;;;;;16.95;6.20;;;9.60;99.90;;;;;;5048196;28;20115;-70
2024/02/11 02:08:04;;;;;;;19.00;5.75;;;9.60;99.90;;;;;;5049687;28;20032;-68
2024/02/11 02:10:30;;;;;;;17.15;6.47;;;9.60;99.90;;;;;;5049582;28;20040;-70
2024/02/11 02:12:56;;;;;;;25.00;6.63;;;9.60;99.90;;;;;;5048274;28;20541;-69
2024/02/11 02:15:24;;;;;;;;;;;9.70;99.90;;;;;;5049883;28;20116;-67
2024/02/11 02:17:50;;;;;;;16.55;5.63;;;9.60;99.90;;;;;;5049522;28;19909;-70
2024/02/11 02:20:16;;;;;;;;;;;9.60;99.90;;;;;;5049986;28;20024;-70
2024/02/11 02:22:43;;;;;;;19.87;6.27;;;9.70;99.90;;;;;;5049179;28;19927;-69
2024/02/11 02:25:09;;;;;;;17.08;6.15;;;9.60;99.90;;;;;;5049254;28;20268;-69
2024/02/11 02:27:37;;;;;;;;;;;9.50;99.90;;;;;;5048349;28;20871;-67
2024/02/11 02:30:07;;;;;;;19.98;5.70;;;9.60;99.90;;;;;;5049331;28;20400;-70
2024/02/11 02:32:34;;;;;;;12.75;5.32;;;9.80;99.90;;;;;;5047713;28;20025;-68
2024/02/11 02:35:00;;;;;;;22.73;7.20;;;9.80;99.90;;;;;;5047712;28;20128;-68
2024/02/11 02:37:26;;;;;;;22.67;6.20;;;9.80;99.90;;;;;;5049065;28;20703;-70
2024/02/11 02:39:51;;;;;;;;;;;9.60;99.90;;;;;;5048219;28;20032;-67
2024/02/11 02:42:17;;;;;;;27.10;5.85;;;9.50;99.90;;;;;;5048039;28;19931;-69
2024/02/11 02:44:43;;;;;;;;;;;9.50;99.90;;;;;;5049369;28;20048;-67
2024/02/11 02:47:11;;;;;;;22.45;5.82;;;9.50;99.90;;;;;;5047692;28;19915;-70
2024/02/11 02:49:37;;;;;;;18.35;6.32;;;9.50;99.90;;;;;;5048650;28;20120;-70
2024/02/11 02:52:02;;;;;;;;;;;9.30;99.90;;;;;;5048122;28;20123;-67
2024/02/11 02:54:28;;;;;;;19.40;6.50;;;9.40;99.90;;;;;;5047587;28;19909;-69
2024/02/11 02:56:54;;;;;;;;;;;9.30;99.90;;;;;;5049793;28;20035;-67
2024/02/11 02:59:20;;;;;;;15.30;5.50;;;9.30;99.90;;;;;;5047664;28;19911;-70
2024/02/11 03:01:47;;;;;;;;;;;9.20;99.90;;;;;;5049201;28;20591;-67
2024/02/11 03:04:12;;;;;;;16.20;6.47;;;9.20;99.90;;;;;;5048686;28;19909;-70
2024/02/11 03:06:40;;;;;;;;;;;9.20;99.90;;;;;;5049182;28;20025;-69
2024/02/11 03:09:06;;;;;;;18.77;5.15;;;9.10;99.90;;;;;;5048544;28;19913;-69
2024/02/11 03:11:31;;;;;;;;;;;9.10;99.90;;;;;;5049002;28;20029;-67
2024/02/11 03:13:57;;;;;;;16.65;5.20;;;9.00;99.90;;;;;;5047382;28;19966;-68
2024/02/11 03:16:23;;;;;;;;;;;9.00;99.90;;;;;;5049039;28;20087;-68
2024/02/11 03:18:50;;;;;;;18.00;6.13;;;9.10;99.90;;;;;;5048659;28;19970;-70
2024/02/11 03:21:15;;;;;;;22.05;5.85;;;9.20;99.90;;;;;;5048497;28;20041;-69
2024/02/11 03:23:41;;;;;;;;;;;9.30;99.90;;;;;;5048845;28;20056;-69
2024/02/11 03:26:10;;;;;;;24.55;5.18;;;9.20;99.90;;;;;;5048359;28;19958;-69
2024/02/11 03:28:39;;;;;;;13.32;5.10;;;9.10;99.90;;;;;;5048389;28;20043;-69
2024/02/11 03:31:06;;;;;;;20.55;5.95;;;9.10;99.90;;;;;;5048504;28;20100;-69
2024/02/11 03:33:33;;;;;;;18.42;5.05;;;9.10;99.90;;;;;;5048423;28;20037;-70
2024/02/11 03:35:59;;;;;;;23.50;6.82;;;9.20;99.90;;;;;;5048328;28;20018;-69
2024/02/11 03:38:24;;;;;;;;;;;9.30;99.90;;;;;;5048783;28;20409;-69
2024/02/11 03:40:55;;;;;;;11.52;5.18;;;9.40;99.90;;;;;;5048232;28;19908;-68
2024/02/11 03:43:21;;;;;;;15.13;5.05;;;9.60;99.90;;;;;;5048433;28;20033;-68
2024/02/11 03:45:47;;;;;;;;;;;9.60;99.90;;;;;;5047469;28;20036;-69
2024/02/11 03:48:18;;;;;;;12.88;4.68;;;9.60;99.90;;;;;;5048284;28;19913;-69
2024/02/11 03:50:45;;;;;;;18.30;5.22;;;9.50;99.90;;;;;;5048221;28;20032;-70
2024/02/11 03:53:11;;;;;;;15.02;5.55;;;9.40;99.90;;;;;;5048277;28;20556;-71
2024/02/11 03:55:37;;;;;;;;;;;9.30;99.90;;;;;;5050689;28;20037;-70
2024/02/11 03:58:04;;;;;;;12.35;3.45;;;9.30;99.90;;;;;;5051348;28;20369;-70
2024/02/11 04:00:30;;;;;;;17.23;4.45;;;9.60;99.90;;;;;;5048036;28;20060;-67
2024/02/11 04:03:00;;;;;;;14.55;4.15;;;9.70;99.90;;;;;;5050862;28;20017;-69
2024/02/11 04:05:30;;;;;;;13.57;4.20;;;9.60;99.90;;;;;;5052017;28;20041;-69
2024/02/11 04:07:56;;;;;;;12.68;4.10;;;9.60;99.90;;;;;;5051889;28;20025;-69
2024/02/11 04:10:28;;;;;;;;;;;9.70;99.90;;;;;;5052450;28;20412;-69
2024/02/11 04:12:54;;;;;;;13.98;4.32;;;9.70;99.90;;;;;;5051820;28;20443;-69
2024/02/11 04:15:23;;;;;;;20.33;4.40;;;9.60;99.90;;;;;;5050500;28;20245;-69
2024/02/11 04:17:53;;;;;;;15.15;4.50;;;9.70;99.90;;;;;;5051704;28;20083;-69
2024/02/11 04:20:31;;;;;;;10.00;3.70;;;9.70;99.90;;;;;;5051681;28;20112;-69
2024/02/11 04:22:58;;;;;;;13.10;4.10;;;9.70;99.90;;;;;;5051451;28;20047;-69
2024/02/11 04:25:34;;;;;;;15.68;3.65;;;9.70;99.90;;;;;;5033489;28;20140;-69
2024/02/11 04:28:00;;;;;;;;;;;9.80;99.90;;;;;;5033859;28;20409;-69
2024/02/11 04:30:34;;;;;;;21.55;5.30;;;9.80;99.90;;;;;;5051380;28;19909;-69
2024/02/11 04:33:03;;;;;;;13.73;3.63;;;9.80;99.90;;;;;;5033514;28;20032;-70
2024/02/11 04:35:30;;;;;;;12.93;3.13;;;9.90;99.90;;;;;;5051350;28;20029;-69
2024/02/11 04:37:56;;;;;;;13.52;3.70;;;9.90;99.90;;;;;;5033395;28;20135;-69
2024/02/11 04:40:24;;;;;;;8.60;3.42;;;9.90;99.90;;;;;;5051450;28;20051;-69
2024/02/11 04:42:52;;;;;;;19.55;4.80;;;9.90;99.90;;;;;;5033410;28;20057;-70
2024/02/11 04:45:19;;;;;;;11.27;4.75;;;9.90;99.90;;;;;;5033182;28;20120;-69
2024/02/11 04:47:59;;;;;;;10.77;3.22;;;9.80;99.90;;;;;;5051087;28;20036;-70
2024/02/11 04:50:26;;;;;;;11.80;3.30;;;9.60;99.90;;;;;;5051019;28;20111;-67
2024/02/11 04:52:56;;;;;;;13.52;4.22;;;9.60;99.90;;;;;;5033152;28;20517;-69
2024/02/11 04:55:29;;;;;;;11.70;3.15;;;9.50;99.90;;;;;;5050924;28;20033;-69
2024/02/11 04:57:58;;;;;;;14.57;2.78;;;9.50;99.90;;;;;;5050967;28;20044;-69
2024/02/11 05:00:28;;;;;;;9.80;2.97;;;9.70;99.90;;;;;;5051001;28;20040;-69
2024/02/11 05:02:55;;;;;;;11.32;3.42;;;9.90;99.90;;;;;;5050877;28;20033;-66
2024/02/11 05:05:28;;;;;;;8.45;3.33;;;10.00;99.90;;;;;;5050738;28;20090;-69
2024/02/11 05:07:57;;;;;;;49.10;13.10;;;9.90;99.90;;;;;;5033024;28;20050;-69
2024/02/11 05:10:37;;;;;;;25.63;8.32;;;9.70;99.90;;;;;;5051332;28;20017;-70
2024/02/11 05:13:09;;;;;;;47.13;29.42;;;9.60;99.90;;;;;;5032487;28;20036;-69
2024/02/11 05:15:42;;;;;;;15.93;8.93;;;9.50;99.90;;;;;;5050611;28;20025;-69
2024/02/11 05:18:11;;;;;;;15.48;6.55;;;9.60;99.90;;;;;;5050800;28;20473;-69
2024/02/11 05:20:38;;;;;;;15.32;9.00;;;9.60;99.90;;;;;;5050927;28;20021;-69
2024/02/11 05:23:09;;;;;;;13.75;3.05;;;9.60;99.90;;;;;;5050392;28;20049;-69
2024/02/11 05:25:36;;;;;;;14.35;2.97;;;9.80;99.90;;;;;;5050542;28;20486;-70
2024/02/11 05:28:04;;;;;;;6.60;2.00;;;9.90;99.90;;;;;;5050423;28;20032;-69
2024/02/11 05:30:34;;;;;;;10.00;3.10;;;10.10;99.90;;;;;;5050407;28;20046;-70
2024/02/11 05:33:02;;;;;;;9.75;4.15;;;10.20;99.90;;;;;;5050165;28;20037;-68
2024/02/11 05:35:28;;;;;;;10.85;3.03;;;10.10;99.90;;;;;;5050272;28;20417;-69
2024/02/11 05:37:58;;;;;;;14.25;2.97;;;10.00;99.90;;;;;;5050234;28;20021;-69
2024/02/11 05:40:32;;;;;;;11.32;3.30;;;10.00;99.90;;;;;;5032161;28;20028;-70
2024/02/11 05:43:01;;;;;;;8.48;2.70;;;9.90;99.90;;;;;;5050164;28;20048;-69
2024/02/11 05:45:27;;;;;;;14.13;3.80;;;9.90;99.90;;;;;;5050043;28;20036;-68
2024/02/11 05:47:54;;;;;;;7.13;2.42;;;9.90;99.90;;;;;;5032151;28;20037;-69
2024/02/11 05:50:21;;;;;;;8.20;2.70;;;9.80;99.90;;;;;;5032007;28;20409;-69
2024/02/11 05:52:47;;;;;;;9.93;2.97;;;9.80;99.90;;;;;;5049937;28;20029;-69
2024/02/11 05:55:18;;;;;;;9.50;3.13;;;9.90;99.90;;;;;;5049867;28;20481;-69
2024/02/11 05:57:48;;;;;;;6.35;2.97;;;10.00;99.90;;;;;;5049785;28;20029;-69
2024/02/11 06:00:18;;;;;;;9.63;3.17;;;9.90;99.90;;;;;;5049753;28;20036;-69
2024/02/11 06:02:48;;;;;;;13.52;2.80;;;9.90;99.90;;;;;;5049597;28;20748;-69
2024/02/11 06:05:15;;;;;;;15.07;3.03;;;9.90;99.90;;;;;;5031618;28;20033;-69
2024/02/11 06:07:43;;;;;;;16.95;4.38;;;9.90;99.90;;;;;;5031568;28;20057;-70
2024/02/11 06:10:11;;;;;;;11.77;4.22;;;9.70;99.90;;;;;;5049550;28;20129;-69
2024/02/11 06:12:37;;;;;;;25.48;4.97;;;9.70;99.90;;;;;;5049460;28;20075;-69
2024/02/11 06:15:10;;;;;;;;;;;9.70;99.90;;;;;;5050017;28;20393;-70
2024/02/11 06:17:40;;;;;;;10.65;3.47;;;9.80;99.90;;;;;;5049432;28;19912;-69
2024/02/11 06:20:13;;;;;;;10.20;3.15;;;10.00;99.90;;;;;;5031676;28;20460;-68
2024/02/11 06:22:42;;;;;;;9.65;3.35;;;9.90;99.90;;;;;;5049276;28;20023;-69
2024/02/11 06:25:09;;;;;;;14.15;3.83;;;10.00;99.90;;;;;;5028864;28;20087;-69
2024/02/11 06:27:36;;;;;;;12.32;5.10;;;10.00;99.90;;;;;;5049529;28;20028;-69
2024/02/11 06:30:02;;;;;;;11.27;3.38;;;9.80;99.90;;;;;;5047851;28;20091;-69
2024/02/11 06:32:28;;;;;;;10.63;3.97;;;9.70;99.90;;;;;;5049343;28;20108;-68
2024/02/11 06:34:55;;;;;;;;;;;9.70;99.90;;;;;;5032277;28;20049;-69
2024/02/11 06:37:21;;;;;;;10.85;3.60;;;9.70;99.90;;;;;;5049971;28;20360;-69
2024/02/11 06:39:46;;;;;;;;;;;9.70;99.90;;;;;;5050649;28;20047;-68
2024/02/11 06:42:14;;;;;;;19.90;5.35;;;9.70;99.90;;;;;;5048974;28;20384;-69
2024/02/11 06:44:40;;;;;;;15.85;4.10;;;9.50;99.90;;;;;;5048790;28;20055;-69
2024/02/11 06:47:08;;;;;;;;;;;9.40;99.90;;;;;;5049417;28;20087;-68
2024/02/11 06:49:36;;;;;;;11.98;4.15;;;9.30;99.90;;;;;;5048712;28;19916;-69
2024/02/11 06:52:02;;;;;;;11.90;4.57;;;9.20;99.90;;;;;;5048847;28;20017;-70
2024/02/11 06:54:28;;;;;;;9.98;3.78;;;9.20;99.90;;;;;;5048715;28;20021;-68
2024/02/11 06:56:54;;;;;;;;;;;9.30;99.90;;;;;;5049227;28;20032;-69
2024/02/11 06:59:19;;;;;;;15.27;4.82;;;9.30;99.90;;;;;;5030863;28;19905;-70
2024/02/11 07:01:45;;;;;;;;;;;9.30;99.90;;;;;;5031308;28;20083;-69
2024/02/11 07:04:12;;;;;;;12.98;4.97;;;9.20;99.90;;;;;;5047348;28;20384;-69
2024/02/11 07:06:47;;;;;;;11.77;5.30;;;9.30;99.90;;;;;;5030614;28;20047;-68
2024/02/11 07:09:13;;;;;;;20.00;5.90;;;9.40;99.90;;;;;;5048445;28;20040;-69
2024/02/11 07:11:40;;;;;;;17.63;4.68;;;9.20;99.90;;;;;;5048726;28;20624;-69
2024/02/11 07:14:07;;;;;;;14.38;5.20;;;9.30;99.90;;;;;;5048655;28;20060;-68
2024/02/11 07:16:37;;;;;;;14.43;5.13;;;9.30;99.90;;;;;;5048561;28;20405;-69
2024/02/11 07:19:04;;;;;;;21.88;5.72;;;9.20;99.90;;;;;;5065562;28;20028;-69
2024/02/11 07:21:33;;;;;;;18.25;6.38;;;9.10;99.90;;;;;;5068012;28;20056;-69
2024/02/11 07:23:59;;;;;;;24.38;5.47;;;9.10;99.90;;;;;;5068116;28;20047;-69
2024/02/11 07:26:25;;;;;;;;;;;9.20;99.90;;;;;;5050680;28;20029;-69
2024/02/11 07:28:51;;;;;;;17.13;4.87;;;9.10;99.90;;;;;;5068371;28;19963;-69
2024/02/11 07:31:17;;;;;;;;;;;9.10;99.90;;;;;;5050864;28;20298;-69
2024/02/11 07:33:43;;;;;;;19.80;5.85;;;9.10;99.90;;;;;;5067510;28;20682;-68
2024/02/11 07:36:09;;;;;;;20.77;4.80;;;9.00;99.90;;;;;;5050163;28;20068;-70
2024/02/11 07:38:36;;;;;;;;;;;9.00;99.90;;;;;;5059636;28;20052;-68
2024/02/11 07:41:02;;;;;;;24.05;5.18;;;9.10;99.90;;;;;;5035437;28;20005;-69
2024/02/11 07:43:27;;;;;;;;;;;9.10;99.90;;;;;;5064263;28;20041;-69
2024/02/11 07:45:56;;;;;;;12.10;5.50;;;9.10;99.90;;;;;;5041796;28;19958;-68
2024/02/11 07:48:21;;;;;;;12.10;5.00;;;9.20;99.90;;;;;;5072232;28;20064;-69
2024/02/11 07:50:47;;;;;;;;;;;9.10;99.90;;;;;;5072088;28;20052;-69
2024/02/11 07:53:13;;;;;;;15.15;5.75;;;9.20;99.90;;;;;;5071415;28;19912;-70
2024/02/11 07:55:38;;;;;;;;;;;9.10;99.90;;;;;;5054542;28;20028;-69
2024/02/11 07:58:04;;;;;;;19.27;6.82;;;9.10;99.90;;;;;;5071507;28;19919;-69
2024/02/11 08:00:32;;;;;;;;;;;9.00;99.90;;;;;;5072439;28;20025;-69
2024/02/11 08:02:58;;;;;;;23.83;10.18;;;9.10;99.90;;;;;;5072061;28;19905;-69
2024/02/11 08:05:24;;;;;;;;;;;9.20;99.90;;;;;;5070642;28;20021;-69
2024/02/11 08:07:50;;;;;;;17.83;8.40;;;9.10;99.90;;;;;;5071964;28;20389;-69
2024/02/11 08:10:16;;;;;;;26.50;13.70;;;9.10;99.90;;;;;;5071137;28;20084;-69
2024/02/11 08:12:41;;;;;;;;;;;9.30;99.90;;;;;;5068362;28;20060;-69
2024/02/11 08:15:12;;;;;;;13.88;7.07;;;9.40;99.90;;;;;;5060495;28;19904;-69
2024/02/11 08:17:41;;;;;;;18.15;8.23;;;9.50;99.90;;;;;;5051734;28;20053;-68
2024/02/11 08:20:12;;;;;;;20.15;6.88;;;9.40;99.90;;;;;;5065803;28;20031;-69
2024/02/11 08:22:38;;;;;;;19.55;7.35;;;9.50;99.90;;;;;;5071428;28;20056;-68
2024/02/11 08:25:07;;;;;;;15.05;6.20;;;9.50;99.90;;;;;;5067547;28;20085;-69
2024/02/11 08:27:34;;;;;;;14.07;6.63;;;9.50;99.90;;;;;;5065130;28;20020;-68
2024/02/11 08:29:59;;;;;;;17.23;7.43;;;9.30;99.90;;;;;;5053271;28;20045;-69
2024/02/11 08:32:25;;;;;;;;;;;9.30;99.90;;;;;;5065814;28;20033;-69
2024/02/11 08:34:51;;;;;;;20.25;9.35;;;9.30;99.90;;;;;;5040382;28;19931;-69
2024/02/11 08:37:17;;;;;;;;;;;9.20;99.90;;;;;;5033949;28;20121;-69
2024/02/11 08:39:43;;;;;;;24.60;10.35;;;9.30;99.90;;;;;;5058846;28;19999;-69
2024/02/11 08:42:09;;;;;;;;;;;9.40;99.90;;;;;;5071172;28;20028;-69
2024/02/11 08:44:36;;;;;;;30.70;11.47;;;9.60;99.90;;;;;;5052161;28;19916;-69
2024/02/11 08:47:02;;;;;;;33.35;14.48;;;9.60;99.90;;;;;;5052386;28;20309;-69
2024/02/11 08:49:29;;;;;;;73.15;31.85;;;9.70;99.90;;;;;;5052655;28;20044;-69
2024/02/11 08:51:55;;;;;;;21.50;9.02;;;9.80;99.90;;;;;;5070389;28;20021;-70
2024/02/11 08:54:20;;;;;;;24.63;11.07;;;9.70;99.90;;;;;;5061800;28;20602;-69
2024/02/11 08:56:47;;;;;;;;;;;9.70;99.90;;;;;;5051051;28;20033;-69
2024/02/11 08:59:13;;;;;;;25.55;11.35;;;9.80;99.90;;;;;;5051013;28;20280;-68
2024/02/11 09:01:39;;;;;;;;;;;9.80;99.90;;;;;;5033460;28;20580;-68
2024/02/11 09:04:09;;;;;;;18.17;4.85;;;9.80;99.90;;;;;;5032828;28;20403;-69
2024/02/11 09:06:35;;;;;;;12.23;5.43;;;9.90;99.90;;;;;;5060951;28;20036;-69
2024/02/11 09:09:00;;;;;;;;;;;9.80;99.90;;;;;;5051663;28;20060;-69
2024/02/11 09:11:26;;;;;;;18.92;7.38;;;9.80;99.90;;;;;;5069636;28;19956;-69
2024/02/11 09:13:52;;;;;;;;;;;9.90;99.90;;;;;;5068401;28;20036;-69
2024/02/11 09:16:19;;;;;;;38.00;15.90;;;9.90;99.90;;;;;;5068658;28;19927;-69
2024/02/11 09:18:44;;;;;;;12.85;4.65;;;9.80;99.90;;;;;;5062714;28;20036;-70
2024/02/11 09:21:11;;;;;;;;;;;9.80;99.90;;;;;;5033040;28;20040;-69
2024/02/11 09:23:36;;;;;;;22.58;9.43;;;9.90;99.90;;;;;;5032267;28;20397;-69
2024/02/11 09:26:02;;;;;;;;;;;9.80;99.90;;;;;;5032321;28;20028;-69
2024/02/11 09:28:29;;;;;;;11.80;3.72;;;9.90;99.90;;;;;;5050245;28;19912;-67
2024/02/11 09:30:55;;;;;;;19.63;4.15;;;10.00;99.90;;;;;;5050307;28;20036;-69
2024/02/11 09:33:21;;;;;;;;;;;9.90;99.90;;;;;;5032880;28;20559;-69
2024/02/11 09:35:47;;;;;;;13.30;4.45;;;10.00;99.90;;;;;;5032288;28;19935;-69
2024/02/11 09:38:14;;;;;;;;;;;10.00;99.90;;;;;;5062598;28;20082;-70
2024/02/11 09:40:39;;;;;;;;;;;10.00;99.90;;;;;;5051212;28;19944;-69
2024/02/11 09:43:06;;;;;;;11.55;3.45;;;10.00;99.90;;;;;;5058981;28;19952;-69
2024/02/11 09:45:35;;;;;;;16.20;4.68;;;9.90;99.90;;;;;;5067227;28;20032;-69
2024/02/11 09:48:04;;;;;;;10.45;3.60;;;9.90;99.90;;;;;;5048406;28;20052;-69
2024/02/11 09:50:30;;;;;;;8.43;3.55;;;9.90;99.90;;;;;;5059335;28;20036;-68
2024/02/11 09:52:56;;;;;;;;;;;9.90;99.90;;;;;;5063325;28;20055;-70
2024/02/11 09:55:22;;;;;;;22.17;6.40;;;10.00;99.90;;;;;;5051551;28;19908;-68
2024/02/11 09:57:48;;;;;;;10.93;3.92;;;9.90;99.90;;;;;;5069185;28;20033;-69
2024/02/11 10:00:14;;;;;;;;;;;9.90;99.90;;;;;;5063288;28;20032;-68
2024/02/11 10:02:40;;;;;;;10.32;3.50;;;10.00;99.90;;;;;;5055902;28;19911;-69
2024/02/11 10:05:10;;;;;;;10.35;4.35;;;10.00;99.90;;;;;;5049529;28;20017;-69
2024/02/11 10:07:39;;;;;;;14.50;4.00;;;10.10;99.90;;;;;;5047402;28;20036;-69
2024/02/11 10:10:05;;;;;;;9.38;4.07;;;10.30;99.90;;;;;;5069270;28;20083;-69
2024/02/11 10:12:32;;;;;;;;;;;10.30;99.90;;;;;;5061446;28;20038;-69
2024/02/11 10:14:58;;;;;;;12.53;4.77;;;10.30;99.90;;;;;;5059804;28;19998;-69
2024/02/11 10:17:23;;;;;;;;;;;10.20;99.90;;;;;;5050758;28;20751;-69
2024/02/11 10:19:53;;;;;;;13.88;3.70;;;10.20;99.90;;;;;;5031598;28;19916;-69
2024/02/11 10:22:19;;;;;;;13.30;4.50;;;10.20;99.90;;;;;;5031467;28;20036;-68
2024/02/11 10:24:47;;;;;;;12.65;3.72;;;10.20;99.90;;;;;;5031141;28;20040;-69
2024/02/11 10:27:14;;;;;;;12.30;4.80;;;10.10;99.90;;;;;;5031453;28;20025;-69
2024/02/11 10:29:41;;;;;;;13.70;4.22;;;10.20;99.90;;;;;;5062266;28;20041;-67
2024/02/11 10:32:13;;;;;;;8.23;3.92;;;10.30;99.90;;;;;;5048961;28;20083;-69
2024/02/11 10:34:43;;;;;;;9.27;3.58;;;10.10;99.90;;;;;;5066661;28;20624;-70
2024/02/11 10:37:13;;;;;;;23.40;10.80;;;10.10;99.90;;;;;;5059080;28;20509;-69
2024/02/11 10:39:42;;;;;;;13.10;4.00;;;10.10;99.90;;;;;;5067478;28;20030;-69
2024/02/11 10:42:13;;;;;;;10.43;4.45;;;10.30;99.90;;;;;;5050685;28;20032;-69
2024/02/11 10:44:39;;;;;;;12.68;4.55;;;10.40;99.90;;;;;;5068868;28;20036;-69
2024/02/11 10:47:06;;;;;;;;;;;10.50;99.90;;;;;;5069344;28;20021;-69
2024/02/11 10:49:32;;;;;;;17.02;3.75;;;10.60;99.90;;;;;;5068812;28;20351;-69
2024/02/11 10:52:02;;;;;;;;;;;10.80;99.90;;;;;;5069252;28;20146;-69
2024/02/11 10:54:39;;;;;;;10.70;4.38;;;11.00;99.90;;;;;;5050655;28;20391;-67
2024/02/11 10:57:12;;;;;;;18.05;9.45;;;11.10;99.90;;;;;;5068687;28;20025;-69
2024/02/11 10:59:43;;;;;;;12.20;4.97;;;11.30;99.90;;;;;;5068839;28;20426;-70
2024/02/11 11:02:11;;;;;;;12.27;4.45;;;11.30;99.90;;;;;;5050772;28;20036;-69
2024/02/11 11:04:40;;;;;;;16.15;6.65;;;11.40;99.90;;;;;;5068731;28;20029;-70
2024/02/11 11:07:12;;;;;;;11.77;4.88;;;11.30;99.90;;;;;;5068658;28;20044;-70
2024/02/11 11:09:39;;;;;;;11.63;4.55;;;11.30;99.90;;;;;;5068689;28;20044;-68
2024/02/11 11:12:09;;;;;;;7.80;4.00;;;11.50;99.90;;;;;;5068665;28;20024;-67
2024/02/11 11:14:42;;;;;;;12.27;6.53;;;11.70;99.90;;;;;;5068605;28;20046;-69
2024/02/11 11:17:22;;;;;;;20.73;4.05;;;11.70;99.90;;;;;;5050640;28;20032;-69
2024/02/11 11:19:52;;;;;;;13.70;5.82;;;11.80;99.90;;;;;;5068539;28;20031;-69
2024/02/11 11:22:28;;;;;;;17.40;9.43;;;11.70;99.90;;;;;;5068482;28;20401;-69
2024/02/11 11:24:55;;;;;;;16.13;5.45;;;11.60;99.90;;;;;;5068398;28;20040;-68
2024/02/11 11:27:22;;;;;;;20.27;7.05;;;11.60;99.90;;;;;;5050134;28;20025;-70
2024/02/11 11:29:48;;;;;;;10.43;4.93;;;11.60;99.90;;;;;;5068337;28;20043;-70
2024/02/11 11:32:20;;;;;;;11.80;4.85;;;11.70;99.90;;;;;;5050014;28;20505;-70
2024/02/11 11:34:45;;;;;;;12.05;4.50;;;11.90;99.90;;;;;;5068525;28;20028;-69
2024/02/11 11:37:13;;;;;;;;;;;12.10;99.90;;;;;;5068808;28;20447;-69
2024/02/11 11:39:40;;;;;;;10.10;3.88;;;12.20;99.90;;;;;;5050443;28;19908;-70
2024/02/11 11:42:06;;;;;;;11.02;4.30;;;12.20;99.90;;;;;;5068275;28;20143;-70
2024/02/11 11:44:32;;;;;;;;;;;12.00;99.90;;;;;;5068987;28;20199;-69
2024/02/11 11:46:58;;;;;;;19.85;7.75;;;11.80;99.90;;;;;;5050217;28;19963;-69
2024/02/11 11:49:24;;;;;;;16.33;5.40;;;11.80;99.90;;;;;;5067626;28;20102;-68
2024/02/11 11:51:59;;;;;;;19.17;8.23;;;11.70;99.90;;;;;;5050750;28;20036;-69
2024/02/11 11:54:28;;;;;;;9.90;4.97;;;11.50;99.90;;;;;;5067962;28;20100;-69
2024/02/11 11:56:58;;;;;;;11.00;5.63;;;11.40;99.90;;;;;;5068305;28;20039;-68
2024/02/11 11:59:24;;;;;;;11.75;4.70;;;11.40;99.90;;;;;;5050173;28;20031;-69
2024/02/11 12:01:51;;;;;;;14.95;7.53;;;11.40;99.90;;;;;;5068185;28;20031;-69
2024/02/11 12:04:17;;;;;;;14.55;4.68;;;11.40;99.90;;;;;;5068121;28;20397;-68
2024/02/11 12:06:43;;;;;;;11.95;6.28;;;11.50;99.90;;;;;;5061871;28;20128;-68
2024/02/11 12:09:09;;;;;;;15.27;5.78;;;11.60;99.90;;;;;;5067834;28;20154;-69
2024/02/11 12:11:35;;;;;;;;;;;11.60;99.90;;;;;;5050504;28;20048;-69
2024/02/11 12:14:02;;;;;;;18.35;7.50;;;11.60;99.90;;;;;;5067676;28;19920;-70
2024/02/11 12:16:28;;;;;;;7.95;4.57;;;11.50;99.90;;;;;;5067857;28;20039;-69
2024/02/11 12:18:54;;;;;;;;;;;11.60;99.90;;;;;;5068459;28;20021;-69
2024/02/11 12:21:20;;;;;;;22.10;10.00;;;11.50;99.90;;;;;;5067903;28;20379;-69
2024/02/11 12:23:46;;;;;;;;;;;11.30;99.90;;;;;;5071372;28;20044;-69
2024/02/11 12:26:19;;;;;;;15.23;5.67;;;11.20;99.90;;;;;;5071185;28;19912;-69
2024/02/11 12:28:52;;;;;;;15.35;4.55;;;11.20;99.90;;;;;;5070936;28;20076;-68
2024/02/11 12:31:19;;;;;;;19.50;6.60;;;11.30;99.90;;;;;;5071480;28;20032;-69
2024/02/11 12:33:49;;;;;;;12.25;5.13;;;11.30;99.90;;;;;;5071157;28;20048;-69
2024/02/11 12:36:22;;;;;;;16.77;6.93;;;11.30;99.90;;;;;;5070914;28;20028;-69
2024/02/11 12:38:52;;;;;;;13.30;7.00;;;11.20;99.90;;;;;;5070930;28;20017;-70
2024/02/11 12:41:19;;;;;;;19.70;8.13;;;11.30;99.90;;;;;;5071056;28;20028;-69
2024/02/11 12:43:46;;;;;;;14.82;6.68;;;11.30;99.90;;;;;;5071177;28;20075;-69
2024/02/11 12:46:12;;;;;;;18.15;6.35;;;11.10;99.90;;;;;;5070854;28;20542;-70
2024/02/11 12:48:38;;;;;;;;;;;11.20;99.90;;;;;;5053505;28;20044;-69
2024/02/11 12:51:05;;;;;;;28.58;14.65;;;11.20;99.90;;;;;;5070963;28;20530;-69
2024/02/11 12:53:31;;;;;;;21.38;9.85;;;11.20;99.90;;;;;;5053337;28;20443;-69
2024/02/11 12:55:57;;;;;;;;;;;11.30;99.90;;;;;;5071525;28;20043;-69
2024/02/11 12:58:23;;;;;;;23.13;10.38;;;11.30;99.90;;;;;;5070927;28;19915;-69
2024/02/11 13:00:49;;;;;;;16.48;8.70;;;11.30;99.90;;;;;;5052690;28;20032;-69
2024/02/11 13:03:15;;;;;;;;;;;11.40;99.90;;;;;;5052094;28;20025;-69
2024/02/11 13:05:41;;;;;;;12.65;7.47;;;11.50;99.90;;;;;;5049424;28;19961;-70